LiveATC.Net - Listen to live air traffic control over the Internet!


ICAO: LFBL  IATA: LIG   Airport: Limoges-Bellegarde Airport
City: Limoges
Country: France   Continent: Europe
LFBU METAR Weather: LFBU 151830Z AUTO 08002KT CAVOK 28/12 Q1020 NOSIG
LFBL Flight Activity (FlightAware)

LFBU/LFBL Tower
Feed Status: DOWN
Last heard on: 2018-11-19 20:05:05 (299 days 23 hours 6 minutes ago)
LFBU/LFBL Tower Audio Archives
FacilityFrequency
LFBL Limoges Tower124.055
LFBU Angouleme Tower123.150
Medoc124.325

NOTICE

Unauthorized use prohibited. See LiveATC.net Terms of Service


Airport/ARTCC Code
Frequency Search
(e.g., 124.400, 128.75)
Site-wide search
 


Browse LiveATC Feeds
Top 50 LiveATC Feeds
LiveATC Feed Map
Bad Weather Areas

LiveATC FAQ
Offer LiveATC feed
Contact LiveATC.net
Press Inquiries

LiveATC on iPhone
LiveATC on Android

Windows Phone
Windows 8/10

LiveATC Mobile
(Mobile browser)

ATC Audio Archives
Interesting Recordings

LiveATC Forums


Home Page
About LiveATC.net
Make a Donation
Terms of Use
Privacy Policy

Canadian Air Freqs

AIRMETs/SIGMETs

FAA Airport Status
Nat'l Airspace Status
Arrival Demand Charts


Server Software By:
Icecast.org
Liquidsoap